sensor_id;sensor_type;location;lat;lon;timestamp;P1;durP1;ratioP1;P2;durP2;ratioP2
47545;SDS011;50104;52.002;4.688;2023-04-01T00:01:38;40.75;;;14.93;;
47545;SDS011;50104;52.002;4.688;2023-04-01T00:06:38;32.42;;;15.05;;
47545;SDS011;50104;52.002;4.688;2023-04-01T00:11:40;42.00;;;18.67;;
47545;SDS011;50104;52.002;4.688;2023-04-01T00:16:40;30.30;;;10.43;;
47545;SDS011;50104;52.002;4.688;2023-04-01T00:21:41;26.63;;;9.50;;
47545;SDS011;50104;52.002;4.688;2023-04-01T00:26:42;29.50;;;8.23;;
47545;SDS011;50104;52.002;4.688;2023-04-01T00:31:44;26.77;;;8.57;;
47545;SDS011;50104;52.002;4.688;2023-04-01T00:36:45;25.90;;;7.50;;
47545;SDS011;50104;52.002;4.688;2023-04-01T00:41:47;28.70;;;11.20;;
47545;SDS011;50104;52.002;4.688;2023-04-01T00:46:48;35.53;;;10.60;;
47545;SDS011;50104;52.002;4.688;2023-04-01T00:51:50;21.95;;;7.32;;
47545;SDS011;50104;52.002;4.688;2023-04-01T00:56:55;27.58;;;9.27;;
47545;SDS011;50104;52.002;4.688;2023-04-01T01:02:08;32.55;;;10.57;;
47545;SDS011;50104;52.002;4.688;2023-04-01T01:18:46;27.30;;;9.02;;
47545;SDS011;50104;52.002;4.688;2023-04-01T01:30:15;32.92;;;12.70;;
47545;SDS011;50104;52.002;4.688;2023-04-01T01:40:39;24.50;;;9.10;;
47545;SDS011;50104;52.002;4.688;2023-04-01T01:45:46;19.35;;;7.80;;
47545;SDS011;50104;52.002;4.688;2023-04-01T01:50:51;13.67;;;5.30;;
47545;SDS011;50104;52.002;4.688;2023-04-01T01:55:53;15.48;;;5.60;;
47545;SDS011;50104;52.002;4.688;2023-04-01T02:00:58;11.82;;;4.57;;
47545;SDS011;50104;52.002;4.688;2023-04-01T02:06:05;11.50;;;5.15;;
47545;SDS011;50104;52.002;4.688;2023-04-01T02:11:09;17.70;;;5.85;;
47545;SDS011;50104;52.002;4.688;2023-04-01T02:16:22;10.80;;;4.80;;
47545;SDS011;50104;52.002;4.688;2023-04-01T02:21:31;13.93;;;5.15;;
47545;SDS011;50104;52.002;4.688;2023-04-01T02:26:33;11.05;;;4.28;;
47545;SDS011;50104;52.002;4.688;2023-04-01T02:31:35;9.52;;;4.40;;
47545;SDS011;50104;52.002;4.688;2023-04-01T02:36:36;18.23;;;6.78;;
47545;SDS011;50104;52.002;4.688;2023-04-01T02:41:39;18.52;;;6.38;;
47545;SDS011;50104;52.002;4.688;2023-04-01T02:46:42;15.68;;;6.13;;
47545;SDS011;50104;52.002;4.688;2023-04-01T02:51:43;8.68;;;4.45;;
47545;SDS011;50104;52.002;4.688;2023-04-01T02:56:44;11.65;;;4.72;;
47545;SDS011;50104;52.002;4.688;2023-04-01T03:01:45;11.18;;;5.63;;
47545;SDS011;50104;52.002;4.688;2023-04-01T03:06:46;16.08;;;7.18;;
47545;SDS011;50104;52.002;4.688;2023-04-01T03:11:47;17.10;;;8.77;;
47545;SDS011;50104;52.002;4.688;2023-04-01T03:16:48;17.75;;;8.05;;
47545;SDS011;50104;52.002;4.688;2023-04-01T03:21:49;18.45;;;9.27;;
47545;SDS011;50104;52.002;4.688;2023-04-01T03:26:49;24.38;;;11.80;;
47545;SDS011;50104;52.002;4.688;2023-04-01T03:31:51;20.58;;;10.10;;
47545;SDS011;50104;52.002;4.688;2023-04-01T03:36:52;20.58;;;9.75;;
47545;SDS011;50104;52.002;4.688;2023-04-01T03:41:52;20.27;;;8.60;;
47545;SDS011;50104;52.002;4.688;2023-04-01T03:46:53;20.92;;;7.03;;
47545;SDS011;50104;52.002;4.688;2023-04-01T03:51:54;13.15;;;7.25;;
47545;SDS011;50104;52.002;4.688;2023-04-01T03:56:55;17.80;;;7.93;;
47545;SDS011;50104;52.002;4.688;2023-04-01T04:01:57;18.48;;;7.72;;
47545;SDS011;50104;52.002;4.688;2023-04-01T04:06:58;14.18;;;6.72;;
47545;SDS011;50104;52.002;4.688;2023-04-01T04:12:00;11.73;;;6.03;;
47545;SDS011;50104;52.002;4.688;2023-04-01T04:17:00;14.07;;;6.35;;
47545;SDS011;50104;52.002;4.688;2023-04-01T04:22:01;14.95;;;7.63;;
47545;SDS011;50104;52.002;4.688;2023-04-01T04:27:02;12.80;;;7.25;;
47545;SDS011;50104;52.002;4.688;2023-04-01T04:32:04;10.35;;;5.93;;
47545;SDS011;50104;52.002;4.688;2023-04-01T04:37:05;17.73;;;7.97;;
47545;SDS011;50104;52.002;4.688;2023-04-01T04:42:05;16.05;;;8.23;;
47545;SDS011;50104;52.002;4.688;2023-04-01T04:47:06;18.58;;;8.73;;
47545;SDS011;50104;52.002;4.688;2023-04-01T04:52:07;13.13;;;7.45;;
47545;SDS011;50104;52.002;4.688;2023-04-01T04:57:08;16.00;;;8.80;;
47545;SDS011;50104;52.002;4.688;2023-04-01T05:02:09;17.95;;;9.75;;
47545;SDS011;50104;52.002;4.688;2023-04-01T05:07:10;16.35;;;9.15;;
47545;SDS011;50104;52.002;4.688;2023-04-01T05:12:11;13.52;;;7.35;;
47545;SDS011;50104;52.002;4.688;2023-04-01T05:17:13;19.33;;;8.85;;
47545;SDS011;50104;52.002;4.688;2023-04-01T05:22:14;16.23;;;8.18;;
47545;SDS011;50104;52.002;4.688;2023-04-01T05:27:15;15.15;;;7.65;;
47545;SDS011;50104;52.002;4.688;2023-04-01T05:32:16;22.35;;;9.65;;
47545;SDS011;50104;52.002;4.688;2023-04-01T05:37:17;18.20;;;8.98;;
47545;SDS011;50104;52.002;4.688;2023-04-01T05:42:18;15.23;;;7.53;;
47545;SDS011;50104;52.002;4.688;2023-04-01T05:47:18;14.32;;;8.00;;
47545;SDS011;50104;52.002;4.688;2023-04-01T05:52:19;19.02;;;8.05;;
47545;SDS011;50104;52.002;4.688;2023-04-01T05:57:20;17.45;;;7.65;;
47545;SDS011;50104;52.002;4.688;2023-04-01T06:02:21;21.75;;;8.98;;
47545;SDS011;50104;52.002;4.688;2023-04-01T06:07:22;22.48;;;9.38;;
47545;SDS011;50104;52.002;4.688;2023-04-01T06:28:41;21.98;;;9.82;;
47545;SDS011;50104;52.002;4.688;2023-04-01T06:40:17;27.77;;;11.88;;
47545;SDS011;50104;52.002;4.688;2023-04-01T06:45:27;25.92;;;12.68;;
47545;SDS011;50104;52.002;4.688;2023-04-01T06:56:11;28.10;;;12.25;;
47545;SDS011;50104;52.002;4.688;2023-04-01T07:01:58;24.17;;;10.20;;
47545;SDS011;50104;52.002;4.688;2023-04-01T07:06:45;25.67;;;11.77;;
47545;SDS011;50104;52.002;4.688;2023-04-01T07:11:48;20.92;;;10.00;;
47545;SDS011;50104;52.002;4.688;2023-04-01T07:16:59;19.52;;;11.68;;
47545;SDS011;50104;52.002;4.688;2023-04-01T07:22:20;21.63;;;10.07;;
47545;SDS011;50104;52.002;4.688;2023-04-01T07:27:41;17.63;;;10.90;;
47545;SDS011;50104;52.002;4.688;2023-04-01T07:43:57;22.83;;;10.57;;
47545;SDS011;50104;52.002;4.688;2023-04-01T07:49:55;15.45;;;8.73;;
47545;SDS011;50104;52.002;4.688;2023-04-01T08:01:00;16.55;;;8.77;;
47545;SDS011;50104;52.002;4.688;2023-04-01T08:12:07;20.33;;;8.60;;
47545;SDS011;50104;52.002;4.688;2023-04-01T08:22:40;20.02;;;8.57;;
47545;SDS011;50104;52.002;4.688;2023-04-01T08:38:37;21.08;;;8.75;;
47545;SDS011;50104;52.002;4.688;2023-04-01T08:44:04;17.25;;;7.95;;
47545;SDS011;50104;52.002;4.688;2023-04-01T08:54:56;12.15;;;6.18;;
47545;SDS011;50104;52.002;4.688;2023-04-01T09:49:02;13.63;;;6.00;;
47545;SDS011;50104;52.002;4.688;2023-04-01T10:18:03;7.53;;;4.35;;
47545;SDS011;50104;52.002;4.688;2023-04-01T10:23:27;15.35;;;5.88;;
47545;SDS011;50104;52.002;4.688;2023-04-01T10:45:42;18.20;;;8.60;;
47545;SDS011;50104;52.002;4.688;2023-04-01T10:51:20;14.07;;;7.45;;
47545;SDS011;50104;52.002;4.688;2023-04-01T10:56:36;18.38;;;7.63;;
47545;SDS011;50104;52.002;4.688;2023-04-01T11:19:08;12.15;;;5.45;;
47545;SDS011;50104;52.002;4.688;2023-04-01T11:24:17;6.88;;;3.72;;
47545;SDS011;50104;52.002;4.688;2023-04-01T11:29:50;8.63;;;5.13;;
47545;SDS011;50104;52.002;4.688;2023-04-01T11:40:35;16.30;;;7.35;;
47545;SDS011;50104;52.002;4.688;2023-04-01T11:46:08;12.10;;;5.87;;
47545;SDS011;50104;52.002;4.688;2023-04-01T12:14:29;8.52;;;5.20;;
47545;SDS011;50104;52.002;4.688;2023-04-01T13:15:28;16.08;;;7.15;;
47545;SDS011;50104;52.002;4.688;2023-04-01T13:26:09;13.57;;;7.22;;
47545;SDS011;50104;52.002;4.688;2023-04-01T13:37:25;15.45;;;7.88;;
47545;SDS011;50104;52.002;4.688;2023-04-01T13:42:54;19.17;;;7.82;;
47545;SDS011;50104;52.002;4.688;2023-04-01T14:04:28;11.20;;;4.78;;
47545;SDS011;50104;52.002;4.688;2023-04-01T14:15:32;8.30;;;4.70;;
47545;SDS011;50104;52.002;4.688;2023-04-01T14:32:48;15.55;;;4.72;;
47545;SDS011;50104;52.002;4.688;2023-04-01T14:44:04;8.57;;;4.25;;
47545;SDS011;50104;52.002;4.688;2023-04-01T14:54:38;7.65;;;3.72;;
47545;SDS011;50104;52.002;4.688;2023-04-01T14:59:48;11.35;;;4.00;;
47545;SDS011;50104;52.002;4.688;2023-04-01T15:05:06;12.18;;;4.28;;
47545;SDS011;50104;52.002;4.688;2023-04-01T15:21:31;8.35;;;3.88;;
47545;SDS011;50104;52.002;4.688;2023-04-01T15:27:12;7.03;;;3.92;;
47545;SDS011;50104;52.002;4.688;2023-04-01T15:43:43;7.03;;;4.93;;
47545;SDS011;50104;52.002;4.688;2023-04-01T15:49:47;5.90;;;4.78;;
47545;SDS011;50104;52.002;4.688;2023-04-01T15:54:38;7.15;;;4.95;;
47545;SDS011;50104;52.002;4.688;2023-04-01T16:21:44;6.60;;;4.88;;
47545;SDS011;50104;52.002;4.688;2023-04-01T16:27:06;6.47;;;4.03;;
47545;SDS011;50104;52.002;4.688;2023-04-01T16:32:34;5.10;;;4.00;;
47545;SDS011;50104;52.002;4.688;2023-04-01T16:43:30;6.43;;;4.22;;
47545;SDS011;50104;52.002;4.688;2023-04-01T16:48:58;6.20;;;4.93;;
47545;SDS011;50104;52.002;4.688;2023-04-01T16:59:24;6.20;;;4.75;;
47545;SDS011;50104;52.002;4.688;2023-04-01T17:04:38;7.22;;;5.30;;
47545;SDS011;50104;52.002;4.688;2023-04-01T17:15:43;5.22;;;3.72;;
47545;SDS011;50104;52.002;4.688;2023-04-01T17:21:06;4.95;;;3.97;;
47545;SDS011;50104;52.002;4.688;2023-04-01T17:26:24;5.15;;;4.15;;
47545;SDS011;50104;52.002;4.688;2023-04-01T17:42:53;3.50;;;3.20;;
47545;SDS011;50104;52.002;4.688;2023-04-01T17:48:31;2.92;;;2.60;;
47545;SDS011;50104;52.002;4.688;2023-04-01T17:59:44;4.28;;;3.65;;
47545;SDS011;50104;52.002;4.688;2023-04-01T18:05:12;5.18;;;3.70;;
47545;SDS011;50104;52.002;4.688;2023-04-01T18:27:48;3.75;;;3.35;;
47545;SDS011;50104;52.002;4.688;2023-04-01T18:32:58;3.00;;;2.80;;
47545;SDS011;50104;52.002;4.688;2023-04-01T18:38:30;2.90;;;2.70;;
47545;SDS011;50104;52.002;4.688;2023-04-01T18:43:40;2.30;;;2.10;;
47545;SDS011;50104;52.002;4.688;2023-04-01T18:48:59;3.22;;;2.63;;
47545;SDS011;50104;52.002;4.688;2023-04-01T18:54:31;4.22;;;3.80;;
47545;SDS011;50104;52.002;4.688;2023-04-01T18:59:42;3.67;;;3.38;;
47545;SDS011;50104;52.002;4.688;2023-04-01T19:05:31;4.37;;;3.90;;
47545;SDS011;50104;52.002;4.688;2023-04-01T19:10:54;5.75;;;4.65;;
47545;SDS011;50104;52.002;4.688;2023-04-01T19:21:32;7.22;;;4.05;;
47545;SDS011;50104;52.002;4.688;2023-04-01T19:27:01;4.75;;;4.03;;
47545;SDS011;50104;52.002;4.688;2023-04-01T19:37:51;4.97;;;4.55;;
47545;SDS011;50104;52.002;4.688;2023-04-01T19:43:03;4.93;;;3.65;;
47545;SDS011;50104;52.002;4.688;2023-04-01T19:48:28;6.75;;;5.97;;
47545;SDS011;50104;52.002;4.688;2023-04-01T20:04:46;5.15;;;4.40;;
47545;SDS011;50104;52.002;4.688;2023-04-01T20:20:43;4.90;;;4.40;;
47545;SDS011;50104;52.002;4.688;2023-04-01T20:26:13;4.22;;;3.83;;
47545;SDS011;50104;52.002;4.688;2023-04-01T20:31:43;5.20;;;4.70;;
47545;SDS011;50104;52.002;4.688;2023-04-01T20:36:58;4.25;;;3.85;;
47545;SDS011;50104;52.002;4.688;2023-04-01T20:42:46;3.90;;;3.50;;
47545;SDS011;50104;52.002;4.688;2023-04-01T20:53:58;6.55;;;5.53;;
47545;SDS011;50104;52.002;4.688;2023-04-01T20:59:40;8.50;;;5.05;;
47545;SDS011;50104;52.002;4.688;2023-04-01T21:21:29;11.13;;;8.07;;
47545;SDS011;50104;52.002;4.688;2023-04-01T21:43:27;6.13;;;4.82;;
47545;SDS011;50104;52.002;4.688;2023-04-01T21:54:31;5.28;;;4.47;;
47545;SDS011;50104;52.002;4.688;2023-04-01T22:05:33;6.82;;;4.72;;
47545;SDS011;50104;52.002;4.688;2023-04-01T22:16:01;5.60;;;4.15;;
47545;SDS011;50104;52.002;4.688;2023-04-01T22:26:59;6.32;;;5.13;;
47545;SDS011;50104;52.002;4.688;2023-04-01T22:32:06;6.38;;;5.68;;
47545;SDS011;50104;52.002;4.688;2023-04-01T22:53:03;8.25;;;6.15;;
47545;SDS011;50104;52.002;4.688;2023-04-01T22:58:14;6.82;;;6.13;;
47545;SDS011;50104;52.002;4.688;2023-04-01T23:14:09;7.25;;;5.63;;
47545;SDS011;50104;52.002;4.688;2023-04-01T23:19:24;8.10;;;6.50;;
47545;SDS011;50104;52.002;4.688;2023-04-01T23:24:49;7.38;;;6.22;;
47545;SDS011;50104;52.002;4.688;2023-04-01T23:29:54;9.55;;;6.18;;
47545;SDS011;50104;52.002;4.688;2023-04-01T23:34:58;12.27;;;6.13;;
47545;SDS011;50104;52.002;4.688;2023-04-01T23:40:00;9.63;;;7.00;;
47545;SDS011;50104;52.002;4.688;2023-04-01T23:45:02;7.47;;;6.47;;
47545;SDS011;50104;52.002;4.688;2023-04-01T23:50:18;8.65;;;6.25;;
47545;SDS011;50104;52.002;4.688;2023-04-01T23:55:26;12.35;;;6.47;;
